Time;durP1;ratioP1;P1;durP2;ratioP2;P2;SDS_P1;SDS_P2;PMS_P1;PMS_P2;Temp;Humidity;BMP_temperature;BMP_pressure;BME280_temperature;BME280_humidity;BME280_pressure;Samples;Min_cycle;Max_cycle;Signal;HPM_P1;HPM_P2
2023/07/13 00:00:11;;;;;;;13.40;2.95;;;;;;;18.43;100.00;100531.03;5090143;28;20091;-69
2023/07/13 00:02:37;;;;;;;10.20;2.60;;;;;;;18.40;100.00;100537.00;5092472;28;20062;-69
2023/07/13 00:05:03;;;;;;;9.70;2.50;;;;;;;18.37;100.00;100530.16;5075430;28;20478;-69
2023/07/13 00:07:28;;;;;;;12.57;2.45;;;;;;;18.37;100.00;100529.34;5089727;28;20032;-69
2023/07/13 00:09:53;;;;;;;13.82;2.53;;;;;;;18.37;100.00;100527.44;5090077;28;20085;-69
2023/07/13 00:12:31;;;;;;;8.52;2.25;;;;;;;18.35;100.00;100528.78;5106850;28;20032;-69
2023/07/13 00:14:59;;;;;;;8.75;2.20;;;;;;;18.34;100.00;100535.31;5089865;28;20085;-69
2023/07/13 00:17:26;;;;;;;10.00;2.65;;;;;;;18.31;100.00;100531.22;5089649;28;20027;-69
2023/07/13 00:19:52;;;;;;;12.40;2.53;;;;;;;18.29;100.00;100527.91;5091006;28;20026;-69
2023/07/13 00:22:19;;;;;;;9.05;2.08;;;;;;;18.25;100.00;100526.78;5089673;28;20028;-69
2023/07/13 00:24:44;;;;;;;12.85;2.55;;;;;;;18.26;100.00;100529.25;5091149;28;20024;-69
2023/07/13 00:27:11;;;;;;;11.30;2.45;;;;;;;18.26;100.00;100531.16;5089561;28;20399;-69
2023/07/13 00:29:36;;;;;;;13.95;2.53;;;;;;;18.26;100.00;100525.69;5090793;28;20028;-71
2023/07/13 00:32:06;;;;;;;11.73;2.40;;;;;;;18.25;100.00;100524.88;5089881;28;20116;-68
2023/07/13 00:34:32;;;;;;;11.45;2.15;;;;;;;18.23;100.00;100534.38;5096292;28;20035;-68
2023/07/13 00:36:58;;;;;;;12.80;2.65;;;;;;;18.23;100.00;100534.38;5095762;28;20028;-69
2023/07/13 00:39:24;;;;;;;16.42;2.90;;;;;;;18.16;100.00;100523.69;5110602;28;20032;-69
2023/07/13 00:41:50;;;;;;;11.20;2.40;;;;;;;18.19;100.00;100536.78;5094677;28;20413;-69
2023/07/13 00:44:17;;;;;;;12.55;2.75;;;;;;;18.12;100.00;100528.00;5093162;28;20024;-69
2023/07/13 00:46:43;;;;;;;13.68;2.15;;;;;;;18.21;100.00;100531.06;5094198;28;20503;-71
2023/07/13 00:49:12;;;;;;;12.88;2.50;;;;;;;18.11;100.00;100531.78;5093076;28;20027;-69
2023/07/13 00:51:44;;;;;;;15.68;2.83;;;;;;;18.18;100.00;100535.16;5093055;28;20046;-69
2023/07/13 00:54:14;;;;;;;14.38;2.55;;;;;;;18.05;100.00;100517.31;5094495;28;20016;-69
2023/07/13 00:56:42;;;;;;;8.60;1.92;;;;;;;18.16;100.00;100534.59;5092926;28;20063;-70
2023/07/13 00:59:11;;;;;;;13.02;2.60;;;;;;;18.03;100.00;100507.75;5094249;28;20028;-71
2023/07/13 01:01:36;;;;;;;12.40;2.13;;;;;;;18.15;100.00;100532.13;5094502;28;20099;-69
2023/07/13 01:04:03;;;;;;;13.68;2.40;;;;;;;18.14;100.00;100525.00;5094338;28;20439;-71
2023/07/13 01:06:28;;;;;;;11.00;2.50;;;;;;;18.17;100.00;100528.03;5109790;28;20109;-71
2023/07/13 01:08:56;;;;;;;15.85;2.75;;;;;;;18.15;100.00;100535.66;5111743;28;20051;-71
2023/07/13 01:11:22;;;;;;;10.52;2.67;;;;;;;18.10;100.00;100530.16;5094611;28;20533;-69
2023/07/13 01:13:48;;;;;;;9.20;2.10;;;;;;;18.16;100.00;100531.03;5076438;28;20158;-69
2023/07/13 01:16:22;;;;;;;12.75;2.60;;;;;;;18.07;100.00;100514.31;5093294;28;20111;-69
2023/07/13 01:18:47;;;;;;;12.57;2.65;;;;;;;18.23;100.00;100535.19;5094199;28;20031;-69
2023/07/13 01:21:13;;;;;;;15.40;2.60;;;;;;;18.22;100.00;100522.66;5110537;28;20032;-71
2023/07/13 01:23:38;;;;;;;17.92;2.70;;;;;;;18.27;100.00;100525.44;5092654;28;20036;-71
2023/07/13 01:26:03;;;;;;;10.45;2.53;;;;;;;18.31;100.00;100526.56;5109537;28;20036;-69
2023/07/13 01:28:29;;;;;;;11.23;2.60;;;;;;;18.23;100.00;100513.41;5109283;28;20016;-69
2023/07/13 01:30:57;;;;;;;11.65;3.17;;;;;;;18.38;100.00;100525.56;5109533;28;20115;-69
2023/07/13 01:33:23;;;;;;;11.60;2.58;;;;;;;18.36;100.00;100530.44;5093769;28;20024;-69
2023/07/13 01:35:49;;;;;;;11.13;2.60;;;;;;;18.40;100.00;100526.09;5109513;28;20032;-71
2023/07/13 01:38:17;;;;;;;13.73;2.85;;;;;;;18.41;100.00;100525.00;5093893;28;20073;-71
2023/07/13 01:40:43;;;;;;;12.88;3.00;;;;;;;18.39;100.00;100532.63;5092656;28;20020;-71
2023/07/13 01:43:08;;;;;;;11.13;2.50;;;;;;;18.45;100.00;100534.34;5092327;28;20028;-71
2023/07/13 01:45:34;;;;;;;11.15;2.45;;;;;;;18.40;100.00;100512.47;5093423;28;20032;-69
2023/07/13 01:47:59;;;;;;;12.20;2.78;;;;;;;18.55;100.00;100537.16;5108571;28;20394;-71
2023/07/13 01:50:26;;;;;;;9.70;2.17;;;;;;;18.57;100.00;100537.69;5092114;28;20028;-69
2023/07/13 01:52:51;;;;;;;10.93;2.25;;;;;;;18.56;100.00;100536.06;5093239;28;20034;-71
2023/07/13 01:55:17;;;;;;;13.55;2.60;;;;;;;18.62;100.00;100536.94;5092218;28;20032;-71
2023/07/13 01:57:42;;;;;;;12.88;2.60;;;;;;;18.61;100.00;100533.41;5091912;28;20017;-71
2023/07/13 02:00:10;;;;;;;12.55;2.30;;;;;;;18.59;100.00;100532.81;5093439;28;20458;-69
2023/07/13 02:02:35;;;;;;;9.45;2.50;;;;;;;18.59;100.00;100534.72;5093310;28;20172;-69
2023/07/13 02:05:00;;;;;;;11.88;2.60;;;;;;;18.44;100.00;100522.63;5108909;28;20126;-70
2023/07/13 02:07:26;;;;;;;17.58;2.80;;;;;;;18.54;100.00;100540.94;5101956;28;20028;-69
2023/07/13 02:09:51;;;;;;;13.32;2.88;;;;;;;18.59;100.00;100549.19;5093582;28;20028;-69
2023/07/13 02:12:17;;;;;;;12.07;2.67;;;;;;;18.58;100.00;100538.56;5092471;28;20032;-69
2023/07/13 02:14:43;;;;;;;12.98;2.20;;;;;;;18.57;100.00;100534.97;5093992;28;20111;-69
2023/07/13 02:17:10;;;;;;;12.85;2.83;;;;;;;18.56;100.00;100533.34;5093178;28;20024;-69
2023/07/13 02:19:36;;;;;;;14.00;2.72;;;;;;;18.49;100.00;100524.56;5093289;28;20024;-69
2023/07/13 02:22:01;;;;;;;13.18;3.00;;;;;;;18.52;100.00;100537.66;5108819;28;20034;-69
2023/07/13 02:24:27;;;;;;;11.93;2.63;;;;;;;18.38;100.00;100517.38;5091741;28;20127;-69
2023/07/13 02:26:52;;;;;;;15.95;2.88;;;;;;;18.51;100.00;100552.38;5093077;28;20459;-69
2023/07/13 02:29:18;;;;;;;13.20;2.70;;;;;;;18.50;100.00;100550.72;5108285;28;20061;-69
2023/07/13 02:31:44;;;;;;;15.98;2.75;;;;;;;18.47;100.00;100549.31;5092751;28;20102;-69
2023/07/13 02:34:09;;;;;;;15.48;3.22;;;;;;;18.44;100.00;100546.28;5091195;28;20028;-69
2023/07/13 02:36:35;;;;;;;10.70;2.75;;;;;;;18.40;100.00;100551.44;5108290;28;20422;-69
2023/07/13 02:39:03;;;;;;;15.18;2.80;;;;;;;18.40;100.00;100548.72;5091088;28;20479;-69
2023/07/13 02:41:28;;;;;;;12.25;2.47;;;;;;;18.37;100.00;100542.97;5107895;28;20024;-69
2023/07/13 02:43:56;;;;;;;13.05;2.90;;;;;;;18.38;100.00;100548.16;5091164;28;20035;-69
2023/07/13 02:46:24;;;;;;;14.00;2.70;;;;;;;18.39;100.00;100549.81;5090839;28;20436;-69
2023/07/13 02:48:49;;;;;;;15.32;2.70;;;;;;;18.40;100.00;100550.63;5107774;28;20030;-69
2023/07/13 02:51:14;;;;;;;12.52;2.60;;;;;;;18.41;100.00;100544.94;5108007;28;20039;-69
2023/07/13 02:53:40;;;;;;;11.45;3.25;;;;;;;18.42;100.00;100551.19;5091384;28;20504;-69
2023/07/13 02:56:05;;;;;;;11.50;2.90;;;;;;;18.38;100.00;100540.00;5107831;28;20135;-69
2023/07/13 02:58:31;;;;;;;15.30;3.63;;;;;;;18.36;100.00;100544.03;5091668;28;20028;-69
2023/07/13 03:00:57;;;;;;;15.63;3.22;;;;;;;18.28;100.00;100520.81;5092158;28;20059;-69
2023/07/13 03:03:23;;;;;;;11.55;2.97;;;;;;;18.40;100.00;100546.00;5091933;28;20031;-69
2023/07/13 03:05:59;;;;;;;13.93;3.33;;;;;;;18.40;100.00;100546.00;5107704;28;20394;-69
2023/07/13 03:08:26;;;;;;;20.00;3.28;;;;;;;18.42;100.00;100534.84;5091909;28;20020;-69
2023/07/13 03:11:02;;;;;;;15.65;3.10;;;;;;;18.70;100.00;100534.53;5091919;28;20051;-69
2023/07/13 03:13:28;;;;;;;10.73;3.40;;;;;;;18.76;100.00;100535.44;5090605;28;20043;-69
2023/07/13 03:15:53;;;;;;;17.02;3.40;;;;;;;18.77;100.00;100534.34;5107343;28;20031;-69
2023/07/13 03:18:19;;;;;;;17.75;3.42;;;;;;;18.92;100.00;100536.41;5091082;28;20462;-68
2023/07/13 03:20:44;;;;;;;15.73;3.00;;;;;;;19.12;100.00;100542.00;5075461;28;20100;-69
2023/07/13 03:23:09;;;;;;;12.25;3.92;;;;;;;19.58;100.00;100538.72;5107433;28;20157;-69
2023/07/13 03:25:35;;;;;;;12.73;3.08;;;;;;;20.01;100.00;100543.03;5107338;28;20031;-69
2023/07/13 03:28:00;;;;;;;12.02;3.00;;;;;;;20.34;99.56;100544.47;5090417;28;20028;-69
2023/07/13 03:30:26;;;;;;;21.13;3.80;;;;;;;20.09;100.00;100530.75;5091512;28;20038;-69
2023/07/13 03:32:51;;;;;;;11.00;3.00;;;;;;;20.50;98.92;100545.34;5107303;28;20035;-72
2023/07/13 03:35:19;;;;;;;12.68;2.95;;;;;;;20.45;98.95;100547.22;5091994;28;20517;-69
2023/07/13 03:37:45;;;;;;;15.45;3.03;;;;;;;20.29;100.00;100546.38;5091844;28;20043;-69
2023/07/13 03:40:11;;;;;;;13.18;3.92;;;;;;;20.04;100.00;100528.84;5090256;28;20032;-69
2023/07/13 03:42:36;;;;;;;17.15;2.67;;;;;;;19.84;100.00;100543.25;5107188;28;20067;-69
2023/07/13 03:45:02;;;;;;;11.15;3.10;;;;;;;19.62;100.00;100537.09;5073101;28;20123;-69
2023/07/13 03:47:27;;;;;;;12.82;2.85;;;;;;;19.51;100.00;100541.69;5089588;28;20059;-69
2023/07/13 03:49:53;;;;;;;15.85;3.47;;;;;;;19.45;100.00;100546.28;5091252;28;20490;-69
2023/07/13 03:52:18;;;;;;;14.85;2.97;;;;;;;19.24;100.00;100509.09;5073426;28;20111;-69
2023/07/13 03:54:44;;;;;;;14.18;3.10;;;;;;;19.40;100.00;100543.56;5091266;28;20031;-69
2023/07/13 03:57:09;;;;;;;14.27;3.53;;;;;;;19.35;100.00;100537.25;5073221;28;20020;-69
2023/07/13 03:59:35;;;;;;;15.07;2.80;;;;;;;19.22;100.00;100530.34;5089961;28;20055;-69
2023/07/13 04:02:01;;;;;;;11.63;3.10;;;;;;;19.16;100.00;100540.38;5091082;28;20115;-69
2023/07/13 04:04:26;;;;;;;12.98;2.92;;;;;;;19.18;100.00;100538.22;5091185;28;20063;-69
2023/07/13 04:06:53;;;;;;;14.65;3.10;;;;;;;19.17;100.00;100541.19;5089788;28;20122;-69
2023/07/13 04:09:18;;;;;;;10.45;2.47;;;;;;;19.21;100.00;100540.44;5074813;28;20051;-69
2023/07/13 04:11:44;;;;;;;10.63;2.88;;;;;;;19.23;100.00;100538.25;5094172;28;20059;-69
2023/07/13 04:14:10;;;;;;;16.30;3.17;;;;;;;19.16;100.00;100531.38;5094245;28;20024;-69
2023/07/13 04:16:35;;;;;;;10.52;2.83;;;;;;;19.13;100.00;100527.25;5094082;28;20112;-69
2023/07/13 04:19:00;;;;;;;13.98;3.25;;;;;;;19.19;100.00;100542.59;5095270;28;20020;-69
2023/07/13 04:21:30;;;;;;;16.17;2.67;;;;;;;19.09;100.00;100528.88;5095088;28;20047;-70
2023/07/13 04:23:56;;;;;;;15.35;3.53;;;;;;;19.10;100.00;100525.06;5096700;28;20539;-68
2023/07/13 04:26:22;;;;;;;17.95;3.15;;;;;;;19.20;100.00;100533.34;5094306;28;20032;-70
2023/07/13 04:28:48;;;;;;;15.80;2.75;;;;;;;19.16;100.00;100529.47;5093419;28;20494;-70
2023/07/13 04:31:14;;;;;;;15.65;3.38;;;;;;;19.28;100.00;100545.66;5110670;28;20092;-70
2023/07/13 04:33:40;;;;;;;16.30;3.08;;;;;;;19.24;100.00;100518.09;5095290;28;20096;-69
2023/07/13 04:36:06;;;;;;;13.13;3.38;;;;;;;19.37;100.00;100549.53;5094130;28;20530;-70
2023/07/13 04:38:32;;;;;;;11.77;2.78;;;;;;;19.40;100.00;100543.56;5096348;28;20004;-70
2023/07/13 04:41:05;;;;;;;13.02;2.70;;;;;;;19.40;100.00;100540.81;5093824;28;20486;-70
2023/07/13 04:43:31;;;;;;;12.68;2.80;;;;;;;19.47;100.00;100546.03;5094896;28;20023;-70
2023/07/13 04:45:57;;;;;;;15.35;2.97;;;;;;;19.50;100.00;100545.50;5110570;28;20047;-70
2023/07/13 04:48:23;;;;;;;11.65;2.47;;;;;;;19.61;100.00;100530.81;5109789;28;20121;-70
2023/07/13 04:50:55;;;;;;;15.25;3.50;;;;;;;20.18;100.00;100535.41;5094296;28;20043;-69
2023/07/13 04:53:21;;;;;;;13.25;3.00;;;;;;;21.58;93.36;100543.34;5094394;28;20027;-70
2023/07/13 04:55:47;;;;;;;12.05;3.08;;;;;;;21.03;95.26;100548.66;5094577;28;20039;-69
2023/07/13 04:58:12;;;;;;;11.93;2.42;;;;;;;21.74;92.57;100541.38;5093135;28;20050;-70
2023/07/13 05:00:38;;;;;;;8.20;2.38;;;;;;;22.36;88.45;100547.41;5092857;28;20440;-70
2023/07/13 05:03:05;;;;;;;9.07;2.08;;;;;;;22.28;88.14;100543.31;5094425;28;20059;-70
2023/07/13 05:05:30;;;;;;;8.20;2.17;;;;;;;22.72;86.09;100554.28;5110300;28;20078;-69
2023/07/13 05:07:55;;;;;;;8.68;2.20;;;;;;;22.21;88.32;100554.59;5094379;28;20036;-70
2023/07/13 05:10:22;;;;;;;10.57;2.58;;;;;;;21.85;90.87;100545.72;5092630;28;20447;-70
2023/07/13 05:12:47;;;;;;;8.25;2.30;;;;;;;21.98;90.02;100552.50;5092675;28;20036;-70
2023/07/13 05:15:13;;;;;;;11.15;2.40;;;;;;;21.90;90.59;100551.19;5094118;28;20024;-71
2023/07/13 05:17:41;;;;;;;12.85;2.25;;;;;;;21.87;89.88;100539.97;5092905;28;20058;-70
2023/07/13 05:20:08;;;;;;;13.15;2.47;;;;;;;21.55;91.53;100544.72;5075594;28;20127;-70
2023/07/13 05:22:34;;;;;;;10.73;2.10;;;;;;;21.27;92.78;100539.84;5109963;28;20036;-70
2023/07/13 05:25:01;;;;;;;9.88;2.42;;;;;;;21.18;93.79;100561.47;5098014;28;20103;-70
2023/07/13 05:27:26;;;;;;;11.52;2.47;;;;;;;21.10;94.02;100559.31;5095594;28;20025;-70
2023/07/13 05:29:52;;;;;;;8.60;2.13;;;;;;;20.96;94.40;100552.75;5094225;28;20566;-70
2023/07/13 05:32:18;;;;;;;10.57;3.00;;;;;;;21.48;92.56;100560.63;5092810;28;20031;-70
2023/07/13 05:34:44;;;;;;;9.57;2.33;;;;;;;21.93;90.98;100556.09;5094282;28;20059;-70
2023/07/13 05:37:09;;;;;;;12.45;2.45;;;;;;;21.97;90.98;100562.66;5092437;28;20050;-70
2023/07/13 05:39:35;;;;;;;8.45;2.00;;;;;;;22.67;87.91;100564.47;5094407;28;20019;-69
2023/07/13 05:42:02;;;;;;;13.77;2.33;;;;;;;22.63;88.07;100564.22;5110706;28;20024;-69
2023/07/13 05:44:27;;;;;;;11.27;2.30;;;;;;;22.50;88.44;100564.84;5075840;28;20028;-70
2023/07/13 05:46:53;;;;;;;13.00;2.95;;;;;;;22.07;89.23;100559.03;5091829;28;20139;-69
2023/07/13 05:49:18;;;;;;;10.60;2.92;;;;;;;22.23;88.67;100565.28;5091877;28;20085;-71
2023/07/13 05:51:44;;;;;;;12.57;2.25;;;;;;;22.35;88.01;100564.94;5092142;28;20509;-70
2023/07/13 05:54:09;;;;;;;10.35;2.08;;;;;;;22.28;87.86;100568.00;5093138;28;20107;-70
2023/07/13 05:56:34;;;;;;;12.38;2.25;;;;;;;22.11;88.26;100554.63;5093139;28;20173;-70
2023/07/13 05:59:00;;;;;;;11.93;2.58;;;;;;;21.94;88.59;100556.91;5091876;28;20024;-70
2023/07/13 06:01:26;;;;;;;10.77;2.70;;;;;;;21.84;89.07;100568.72;5109175;28;20027;-70
2023/07/13 06:03:51;;;;;;;10.32;2.42;;;;;;;21.75;90.01;100560.25;5091848;28;20028;-70
2023/07/13 06:06:17;;;;;;;13.45;2.30;;;;;;;21.68;90.59;100558.94;5074941;28;20406;-70
2023/07/13 06:08:42;;;;;;;9.18;2.38;;;;;;;21.70;90.77;100554.00;5091823;28;20046;-70
2023/07/13 06:11:13;;;;;;;12.40;3.00;;;;;;;21.78;91.02;100551.50;5092675;28;20036;-70
2023/07/13 06:13:39;;;;;;;10.10;2.30;;;;;;;21.61;91.65;100558.41;5093042;28;20124;-70
2023/07/13 06:16:05;;;;;;;10.70;2.10;;;;;;;21.59;91.45;100564.19;5091683;28;20055;-70
2023/07/13 06:18:32;;;;;;;8.55;2.35;;;;;;;21.54;92.19;100573.22;5108927;28;20100;-70
2023/07/13 06:20:57;;;;;;;12.02;2.55;;;;;;;21.53;92.35;100571.56;5108569;28;20038;-70
2023/07/13 06:23:24;;;;;;;11.23;2.22;;;;;;;21.50;92.59;100569.41;5091592;28;20035;-70
2023/07/13 06:25:49;;;;;;;14.20;2.58;;;;;;;21.42;93.46;100571.88;5091399;28;20024;-70
2023/07/13 06:28:15;;;;;;;16.50;2.78;;;;;;;21.37;93.05;100569.97;5091301;28;20371;-70
2023/07/13 06:30:41;;;;;;;15.10;2.53;;;;;;;21.35;92.90;100561.22;5092192;28;20039;-70
2023/07/13 06:33:06;;;;;;;11.27;2.55;;;;;;;21.26;93.41;100563.66;5110185;28;20042;-70
2023/07/13 06:35:32;;;;;;;10.90;2.45;;;;;;;21.21;93.88;100566.41;5092437;28;20040;-70
2023/07/13 06:37:57;;;;;;;13.43;2.65;;;;;;;21.18;94.14;100568.88;5092832;28;20028;-70
2023/07/13 06:40:23;;;;;;;16.83;2.50;;;;;;;21.22;93.73;100567.22;5090948;28;20035;-70
2023/07/13 06:42:48;;;;;;;6.35;2.17;;;;;;;21.22;93.88;100568.03;5074153;28;20028;-70
2023/07/13 06:45:13;;;;;;;11.93;2.40;;;;;;;21.21;93.85;100571.88;5091226;28;20024;-70
2023/07/13 06:47:39;;;;;;;8.77;2.17;;;;;;;21.16;93.49;100571.91;5090661;28;20510;-70
2023/07/13 06:50:05;;;;;;;10.10;2.40;;;;;;;21.19;93.38;100574.09;5092036;28;20115;-70
2023/07/13 06:52:30;;;;;;;10.25;2.20;;;;;;;20.98;93.43;100543.16;5090655;28;20055;-69
2023/07/13 06:54:56;;;;;;;12.20;2.42;;;;;;;21.04;92.58;100557.66;5092273;28;20451;-70
2023/07/13 06:57:21;;;;;;;9.20;1.95;;;;;;;21.00;91.87;100562.88;5092873;28;20028;-70
2023/07/13 06:59:47;;;;;;;6.05;1.77;;;;;;;21.06;91.50;100580.13;5091136;28;20060;-70
2023/07/13 07:02:12;;;;;;;6.60;2.08;;;;;;;21.05;90.64;100572.97;5092300;28;20074;-70
2023/07/13 07:04:38;;;;;;;8.30;2.33;;;;;;;21.25;90.28;100588.56;5107643;28;20056;-70
2023/07/13 07:07:03;;;;;;;9.25;1.88;;;;;;;21.34;89.94;100576.81;5090538;28;20134;-70
2023/07/13 07:09:31;;;;;;;6.95;1.52;;;;;;;21.50;89.49;100574.88;5107592;28;20047;-70
2023/07/13 07:11:56;;;;;;;9.45;1.80;;;;;;;21.69;88.22;100590.69;5091772;28;20020;-69
2023/07/13 07:14:22;;;;;;;6.07;1.58;;;;;;;21.59;86.91;100577.88;5091919;28;20055;-70
2023/07/13 07:16:47;;;;;;;7.03;2.00;;;;;;;21.70;86.23;100595.91;5090489;28;20028;-70
2023/07/13 07:19:13;;;;;;;6.53;1.30;;;;;;;21.72;85.27;100581.91;5090716;28;20032;-70
2023/07/13 07:21:38;;;;;;;5.63;1.65;;;;;;;21.88;84.93;100594.47;5073365;28;20059;-70
2023/07/13 07:24:05;;;;;;;6.72;1.60;;;;;;;22.07;84.42;100597.41;5107257;28;20028;-70
2023/07/13 07:26:31;;;;;;;4.40;1.30;;;;;;;22.27;83.83;100599.25;5090595;28;20065;-70
2023/07/13 07:28:56;;;;;;;10.85;1.83;;;;;;;22.37;82.69;100592.91;5090168;28;20031;-69
2023/07/13 07:31:22;;;;;;;5.35;1.65;;;;;;;22.45;83.08;100600.50;5090424;28;20032;-71
2023/07/13 07:33:49;;;;;;;6.63;1.67;;;;;;;22.25;81.38;100590.47;5091552;28;20118;-70
2023/07/13 07:36:16;;;;;;;6.80;1.73;;;;;;;22.39;81.55;100605.22;5090606;28;20028;-69
2023/07/13 07:38:41;;;;;;;10.80;2.05;;;;;;;22.50;80.88;100601.31;5092576;28;20051;-70
2023/07/13 07:41:07;;;;;;;8.60;1.42;;;;;;;22.46;80.91;100596.69;5073370;28;20056;-70
2023/07/13 07:43:32;;;;;;;6.57;1.33;;;;;;;22.62;80.57;100594.69;5107011;28;20508;-70
2023/07/13 07:45:58;;;;;;;5.40;1.30;;;;;;;22.65;80.91;100599.56;5091422;28;20111;-70
2023/07/13 07:48:23;;;;;;;4.43;1.38;;;;;;;22.74;80.15;100603.34;5090970;28;20055;-70
2023/07/13 07:50:48;;;;;;;6.18;1.50;;;;;;;22.83;79.61;100604.38;5090113;28;20035;-70
2023/07/13 07:53:14;;;;;;;4.07;1.40;;;;;;;23.03;78.52;100594.38;5073174;28;20490;-70
2023/07/13 07:55:39;;;;;;;5.30;1.20;;;;;;;23.15;79.00;100606.63;5089989;28;20032;-70
2023/07/13 07:58:05;;;;;;;6.63;1.40;;;;;;;23.38;78.28;100601.50;5091572;28;20024;-70
2023/07/13 08:00:32;;;;;;;5.03;1.63;;;;;;;23.17;77.55;100601.66;5089732;28;20024;-70
2023/07/13 08:02:58;;;;;;;4.53;1.25;;;;;;;22.97;77.42;100602.66;5089823;28;20140;-70
2023/07/13 08:05:24;;;;;;;4.15;1.50;;;;;;;22.85;78.48;100599.44;5073117;28;20089;-70
2023/07/13 08:07:50;;;;;;;4.07;1.15;;;;;;;23.06;77.60;100615.78;5089614;28;20168;-69
2023/07/13 08:10:16;;;;;;;4.15;1.30;;;;;;;23.18;77.31;100592.34;5090190;28;20119;-70
2023/07/13 08:12:41;;;;;;;7.30;1.23;;;;;;;23.06;76.71;100610.28;5091092;28;20052;-70
2023/07/13 08:15:11;;;;;;;6.28;1.52;;;;;;;23.25;76.86;100613.97;5106992;28;20036;-70
2023/07/13 08:17:36;;;;;;;8.05;1.40;;;;;;;23.32;76.93;100605.38;5089688;28;20056;-70
2023/07/13 08:20:02;;;;;;;4.10;1.20;;;;;;;23.47;75.93;100605.22;5106905;28;20556;-70
2023/07/13 08:22:28;;;;;;;5.45;1.70;;;;;;;23.25;76.56;100613.97;5090952;28;20059;-70
2023/07/13 08:24:56;;;;;;;4.68;1.30;;;;;;;23.01;76.41;100619.34;5091096;28;20031;-69
2023/07/13 08:27:23;;;;;;;5.22;1.42;;;;;;;22.90;76.61;100624.09;5089746;28;20471;-70
2023/07/13 08:29:49;;;;;;;8.10;1.90;;;;;;;22.71;77.84;100620.38;5091151;28;20036;-70
2023/07/13 08:32:15;;;;;;;8.18;1.60;;;;;;;22.93;78.03;100620.81;5089463;28;20030;-70
2023/07/13 08:34:40;;;;;;;7.60;1.63;;;;;;;22.84;77.21;100614.25;5089834;28;20031;-70
2023/07/13 08:37:07;;;;;;;6.57;1.63;;;;;;;22.90;75.91;100617.78;5089633;28;20020;-70
2023/07/13 08:39:33;;;;;;;6.07;1.50;;;;;;;22.83;76.53;100609.88;5090160;28;20032;-70
2023/07/13 08:42:16;;;;;;;6.53;1.60;;;;;;;22.83;76.91;100622.78;5090690;28;20168;-70
2023/07/13 08:45:03;;;;;;;11.70;2.00;;;;;;;22.48;78.02;100630.97;5091196;28;20040;-70
2023/07/13 08:47:34;;;;;;;7.07;1.80;;;;;;;22.48;78.63;100633.69;5090796;28;20052;-70
2023/07/13 08:50:01;;;;;;;9.15;1.80;;;;;;;22.14;79.13;100628.06;5090907;28;20035;-70
2023/07/13 08:52:31;;;;;;;6.03;1.67;;;;;;;22.29;79.30;100640.91;5089648;28;20070;-70
2023/07/13 08:55:02;;;;;;;6.05;1.67;;;;;;;22.17;79.80;100626.72;5091124;28;20031;-70
2023/07/13 08:57:33;;;;;;;5.95;1.77;;;;;;;21.92;79.44;100635.81;5093348;28;20035;-70
2023/07/13 08:59:58;;;;;;;7.50;1.80;;;;;;;22.02;79.19;100624.84;5094111;28;20487;-69
2023/07/13 09:02:46;;;;;;;6.70;1.70;;;;;;;22.03;79.43;100638.25;5094658;28;20028;-70
2023/07/13 09:05:14;;;;;;;5.32;1.48;;;;;;;22.24;79.47;100635.44;5093189;28;20129;-70
2023/07/13 09:07:45;;;;;;;5.28;1.52;;;;;;;22.31;78.79;100627.72;5094329;28;20090;-70
2023/07/13 09:10:26;;;;;;;5.07;1.70;;;;;;;22.44;78.68;100620.81;5092959;28;20028;-70
2023/07/13 09:13:09;;;;;;;8.77;2.05;;;;;;;22.79;78.40;100633.50;5093164;28;20027;-70
2023/07/13 09:15:39;;;;;;;6.18;1.60;;;;;;;22.90;77.09;100632.31;5094408;28;20027;-70
2023/07/13 09:18:24;;;;;;;6.03;1.98;;;;;;;22.73;77.06;100629.97;5094131;28;20069;-70
2023/07/13 09:20:54;;;;;;;8.65;1.70;;;;;;;22.53;77.54;100624.63;5094231;28;20024;-70
2023/07/13 09:23:23;;;;;;;7.85;1.67;;;;;;;22.67;76.63;100639.31;5092503;28;20028;-70
2023/07/13 09:25:56;;;;;;;6.47;1.70;;;;;;;22.58;77.24;100631.97;5093813;28;20396;-70
2023/07/13 09:28:33;;;;;;;8.13;2.55;;;;;;;22.57;77.13;100641.31;5093827;28;20069;-70
2023/07/13 09:31:12;;;;;;;6.95;1.75;;;;;;;22.34;76.58;100638.13;5092128;28;20031;-70
2023/07/13 09:33:38;;;;;;;8.25;1.73;;;;;;;22.53;76.05;100646.56;5092331;28;20035;-70
2023/07/13 09:36:24;;;;;;;5.43;1.88;;;;;;;22.36;77.18;100644.16;5093326;28;20024;-70
2023/07/13 09:38:58;;;;;;;6.40;1.67;;;;;;;22.59;77.53;100652.84;5093973;28;20024;-70
2023/07/13 09:41:37;;;;;;;6.25;1.73;;;;;;;22.59;77.35;100642.69;5092151;28;20060;-70
2023/07/13 09:44:15;;;;;;;5.45;1.90;;;;;;;22.73;76.95;100645.59;5092297;28;20027;-70
2023/07/13 09:46:53;;;;;;;7.45;2.08;;;;;;;22.81;77.58;100642.25;5093271;28;20052;-69
2023/07/13 09:49:23;;;;;;;5.57;1.95;;;;;;;22.99;77.43;100649.03;5093487;28;20111;-70
2023/07/13 09:51:58;;;;;;;6.85;1.52;;;;;;;23.21;76.27;100645.81;5109387;28;20168;-70
2023/07/13 09:54:25;;;;;;;6.28;2.00;;;;;;;23.50;75.46;100637.59;5093683;28;20031;-70
2023/07/13 09:57:00;;;;;;;5.85;1.70;;;;;;;23.63;74.81;100649.84;5093355;28;20023;-70
2023/07/13 09:59:31;;;;;;;9.57;1.63;;;;;;;23.60;74.95;100628.44;5091963;28;20024;-70
2023/07/13 10:01:56;;;;;;;6.13;1.33;;;;;;;23.97;73.86;100648.94;5091697;28;20028;-70
2023/07/13 10:04:31;;;;;;;4.43;1.50;;;;;;;23.90;72.91;100636.38;5075146;28;20031;-70
2023/07/13 10:07:08;;;;;;;4.35;1.50;;;;;;;24.05;72.25;100654.63;5091549;28;20125;-70
2023/07/13 10:09:34;;;;;;;6.78;1.70;;;;;;;24.01;71.59;100663.75;5091818;28;20032;-70
2023/07/13 10:11:59;;;;;;;5.68;1.50;;;;;;;24.09;70.71;100652.09;5093429;28;20069;-69
2023/07/13 10:14:25;;;;;;;3.42;1.15;;;;;;;23.79;71.35;100639.53;5092031;28;20032;-70
2023/07/13 10:17:00;;;;;;;7.47;1.73;;;;;;;23.90;71.95;100647.38;5092985;28;20105;-70
2023/07/13 10:19:27;;;;;;;8.05;1.90;;;;;;;23.72;71.50;100647.31;5092922;28;20157;-70
2023/07/13 10:21:59;;;;;;;8.55;1.60;;;;;;;23.61;72.93;100652.06;5091677;28;20031;-70
2023/07/13 10:24:38;;;;;;;7.22;1.45;;;;;;;23.59;72.32;100651.53;5093269;28;20050;-70
2023/07/13 10:27:17;;;;;;;6.07;1.60;;;;;;;23.59;72.66;100648.78;5091940;28;20031;-70
2023/07/13 10:29:48;;;;;;;7.60;1.48;;;;;;;23.66;73.30;100652.81;5092956;28;20032;-70
2023/07/13 10:32:14;;;;;;;8.65;1.67;;;;;;;23.77;73.54;100641.75;5091192;28;20032;-70
2023/07/13 10:34:44;;;;;;;7.20;1.75;;;;;;;24.13;73.42;100650.41;5092690;28;20042;-70
2023/07/13 10:37:20;;;;;;;7.32;1.70;;;;;;;23.97;73.16;100635.22;5091148;28;20390;-70
2023/07/13 10:39:47;;;;;;;6.07;1.60;;;;;;;24.06;74.22;100647.19;5091063;28;20027;-70
2023/07/13 10:42:18;;;;;;;6.82;1.67;;;;;;;24.09;74.86;100632.88;5092159;28;20053;-70
2023/07/13 10:44:43;;;;;;;7.22;1.88;;;;;;;24.31;74.69;100643.31;5092692;28;20024;-70
2023/07/13 10:47:17;;;;;;;6.40;1.88;;;;;;;24.22;75.74;100634.91;5092207;28;20071;-70
2023/07/13 10:49:44;;;;;;;9.85;1.95;;;;;;;24.19;75.66;100645.66;5092586;28;20039;-69
2023/07/13 10:52:56;;;;;;;7.15;1.73;;;;;;;24.17;75.13;100637.69;5092168;28;20032;-70
2023/07/13 10:55:42;;;;;;;5.47;1.75;;;;;;;24.19;75.15;100641.00;5067573;28;20030;-70
2023/07/13 10:58:28;;;;;;;8.98;1.70;;;;;;;24.39;75.09;100642.66;5069674;28;20024;-70
2023/07/13 11:01:05;;;;;;;4.88;1.35;;;;;;;24.15;74.35;100639.94;5069539;28;20028;-70
2023/07/13 11:03:53;;;;;;;5.65;1.70;;;;;;;23.89;74.49;100650.41;5069398;28;20028;-70
2023/07/13 11:06:31;;;;;;;8.27;1.60;;;;;;;23.88;75.32;100657.03;5069500;28;20127;-70
2023/07/13 11:09:31;;;;;;;7.07;2.00;;;;;;;24.04;74.92;100657.66;5069550;28;20047;-70
2023/07/13 11:11:59;;;;;;;6.03;1.95;;;;;;;23.97;74.93;100627.78;5069524;28;20082;-70
2023/07/13 11:14:26;;;;;;;4.80;1.52;;;;;;;23.99;74.85;100674.22;5069179;28;20032;-70
2023/07/13 11:16:52;;;;;;;5.20;1.73;;;;;;;23.75;73.47;100665.97;5069294;28;20523;-70
2023/07/13 11:19:17;;;;;;;4.00;1.20;;;;;;;23.68;72.42;100664.38;5069154;28;20056;-70